createdAt,value
2023-04-21T00:00:32.509Z,18.73
2023-04-21T00:03:22.166Z,17.88
2023-04-21T00:06:09.360Z,19.70
2023-04-21T00:08:55.001Z,18.58
2023-04-21T00:11:43.574Z,19.08
2023-04-21T00:14:29.397Z,20.02
2023-04-21T00:17:14.630Z,18.35
2023-04-21T00:20:00.279Z,19.77
2023-04-21T00:22:45.993Z,19.55
2023-04-21T00:25:31.398Z,20.30
2023-04-21T00:28:18.832Z,20.88
2023-04-21T00:31:07.015Z,20.17
2023-04-21T00:33:52.065Z,20.42
2023-04-21T00:36:40.414Z,21.52
2023-04-21T00:39:25.862Z,21.77
2023-04-21T00:42:11.262Z,21.98
2023-04-21T00:44:56.802Z,22.98
2023-04-21T00:47:43.319Z,22.33
2023-04-21T00:50:30.438Z,23.40
2023-04-21T00:53:16.051Z,22.38
2023-04-21T00:56:04.873Z,23.38
2023-04-21T00:58:51.211Z,23.38
2023-04-21T01:01:37.262Z,23.98
2023-04-21T01:04:23.242Z,23.02
2023-04-21T01:07:10.022Z,23.70
2023-04-21T01:09:55.318Z,24.20
2023-04-21T01:12:46.046Z,24.50
2023-04-21T01:15:31.323Z,25.73
2023-04-21T01:18:18.164Z,25.73
2023-04-21T01:21:07.446Z,25.65
2023-04-21T01:23:53.974Z,26.88
2023-04-21T01:26:44.880Z,25.70
2023-04-21T01:29:34.862Z,26.05
2023-04-21T01:32:31.525Z,26.00
2023-04-21T01:35:17.210Z,26.38
2023-04-21T01:38:02.560Z,25.48
2023-04-21T01:40:52.463Z,25.85
2023-04-21T01:43:39.788Z,27.15
2023-04-21T01:46:25.574Z,26.95
2023-04-21T01:49:10.820Z,26.70
2023-04-21T01:51:56.424Z,28.00
2023-04-21T01:54:41.961Z,28.83
2023-04-21T01:57:27.354Z,28.00
2023-04-21T02:00:13.528Z,26.50
2023-04-21T02:03:03.438Z,27.55
2023-04-21T02:05:52.034Z,26.83
2023-04-21T02:08:37.583Z,25.95
2023-04-21T02:11:24.989Z,26.67
2023-04-21T02:14:10.286Z,28.40
2023-04-21T02:16:56.306Z,27.63
2023-04-21T02:19:41.753Z,28.65
2023-04-21T02:22:27.339Z,29.33
2023-04-21T02:25:13.767Z,28.30
2023-04-21T02:28:01.814Z,29.63
2023-04-21T02:30:47.347Z,30.05
2023-04-21T02:33:32.556Z,30.10
2023-04-21T02:36:17.934Z,30.80
2023-04-21T02:39:04.132Z,29.73
2023-04-21T02:41:50.742Z,29.73
2023-04-21T02:44:39.403Z,32.03
2023-04-21T02:47:26.143Z,31.60
2023-04-21T02:50:13.885Z,31.65
2023-04-21T02:52:59.109Z,31.25
2023-04-21T02:55:44.471Z,32.75
2023-04-21T02:58:29.659Z,34.85
2023-04-21T03:01:15.037Z,33.25
2023-04-21T03:04:00.656Z,34.40
2023-04-21T03:06:45.979Z,34.85
2023-04-21T03:09:31.298Z,35.80
2023-04-21T03:12:18.187Z,35.67
2023-04-21T03:15:04.158Z,35.60
2023-04-21T03:17:49.791Z,35.42
2023-04-21T03:20:35.983Z,35.42
2023-04-21T03:23:21.525Z,36.92
2023-04-21T03:26:11.779Z,36.30
2023-04-21T03:28:57.212Z,37.85
2023-04-21T03:31:42.938Z,36.55
2023-04-21T03:34:28.298Z,38.83
2023-04-21T03:37:15.348Z,39.08
2023-04-21T03:40:01.223Z,38.45
2023-04-21T03:42:46.947Z,39.33
2023-04-21T03:45:32.507Z,39.50
2023-04-21T03:48:18.173Z,41.08
2023-04-21T03:51:03.733Z,40.42
2023-04-21T03:53:49.219Z,39.90
2023-04-21T03:56:37.220Z,41.35
2023-04-21T03:59:22.556Z,42.33
2023-04-21T04:02:08.642Z,41.58
2023-04-21T04:04:54.029Z,40.30
2023-04-21T04:07:39.396Z,43.33
2023-04-21T04:10:25.321Z,42.70
2023-04-21T04:13:11.753Z,44.08
2023-04-21T04:15:58.606Z,41.75
2023-04-21T04:18:45.818Z,43.55
2023-04-21T04:21:32.692Z,45.00
2023-04-21T04:24:18.308Z,44.90
2023-04-21T04:27:03.735Z,41.45
2023-04-21T04:29:50.672Z,40.88
2023-04-21T04:32:43.063Z,44.30
2023-04-21T04:35:28.456Z,44.20
2023-04-21T04:38:17.031Z,45.08
2023-04-21T04:41:05.140Z,43.78
2023-04-21T04:43:51.034Z,43.85
2023-04-21T04:46:36.494Z,43.63
2023-04-21T04:49:23.954Z,44.65
2023-04-21T04:52:09.489Z,44.80
2023-04-21T04:54:57.689Z,45.28
2023-04-21T04:57:45.680Z,44.08
2023-04-21T05:00:31.812Z,45.35
2023-04-21T05:03:17.129Z,44.83
2023-04-21T05:06:02.562Z,44.78
2023-04-21T05:08:47.761Z,42.40
2023-04-21T05:11:33.130Z,43.47
2023-04-21T05:14:18.679Z,42.85
2023-04-21T05:17:04.240Z,41.70
2023-04-21T05:19:52.177Z,41.30
2023-04-21T05:22:41.048Z,40.55
2023-04-21T05:25:26.568Z,40.90
2023-04-21T05:28:11.885Z,39.92
2023-04-21T05:30:57.250Z,39.53
2023-04-21T05:33:54.889Z,38.33
2023-04-21T05:36:46.157Z,37.38
2023-04-21T05:39:31.839Z,36.90
2023-04-21T05:42:18.337Z,37.85
2023-04-21T05:45:04.078Z,36.17
2023-04-21T05:47:49.742Z,37.22
2023-04-21T05:50:38.618Z,36.80
2023-04-21T05:53:28.878Z,34.55
2023-04-21T05:56:14.532Z,35.00
2023-04-21T05:58:59.793Z,35.60
2023-04-21T06:01:45.183Z,36.22
2023-04-21T06:04:30.515Z,34.65
2023-04-21T06:07:18.866Z,33.88
2023-04-21T06:10:09.402Z,34.40
2023-04-21T06:12:55.145Z,34.42
2023-04-21T06:15:40.578Z,35.67
2023-04-21T06:18:27.763Z,35.13
2023-04-21T06:21:13.116Z,35.13
2023-04-21T06:23:58.669Z,35.03
2023-04-21T06:26:44.005Z,35.15
2023-04-21T06:29:29.801Z,35.97
2023-04-21T06:32:15.511Z,35.10
2023-04-21T06:35:01.167Z,33.65
2023-04-21T06:37:47.288Z,34.35
2023-04-21T06:40:33.928Z,33.60
2023-04-21T06:43:19.177Z,32.72
2023-04-21T06:46:04.556Z,34.13
2023-04-21T06:49:00.422Z,33.55
2023-04-21T06:51:46.399Z,34.10
2023-04-21T06:54:31.931Z,32.58
2023-04-21T06:57:17.746Z,33.00
2023-04-21T07:00:05.644Z,34.22
2023-04-21T07:02:51.321Z,35.22
2023-04-21T07:05:39.977Z,34.72
2023-04-21T07:08:25.704Z,33.45
2023-04-21T07:11:10.986Z,35.75
2023-04-21T07:13:58.552Z,35.92
2023-04-21T07:16:44.195Z,37.58
2023-04-21T07:19:29.843Z,36.22
2023-04-21T07:22:15.472Z,35.40
2023-04-21T07:25:01.151Z,35.80
2023-04-21T07:27:46.911Z,35.38
2023-04-21T07:30:32.175Z,34.85
2023-04-21T07:33:17.872Z,34.22
2023-04-21T07:36:03.407Z,36.85
2023-04-21T07:38:48.993Z,38.38
2023-04-21T07:41:34.641Z,36.28
2023-04-21T07:44:20.037Z,36.35
2023-04-21T07:47:05.823Z,36.28
2023-04-21T07:49:51.267Z,34.00
2023-04-21T07:52:39.709Z,36.47
2023-04-21T07:55:25.332Z,38.42
2023-04-21T07:58:10.882Z,37.45
2023-04-21T08:00:56.366Z,36.03
2023-04-21T08:03:42.122Z,36.50
2023-04-21T08:06:28.124Z,36.35
2023-04-21T08:09:13.900Z,37.10
2023-04-21T08:11:59.100Z,36.22
2023-04-21T08:14:44.774Z,34.28
2023-04-21T08:17:30.667Z,34.67
2023-04-21T08:20:15.951Z,32.72
2023-04-21T08:23:01.273Z,32.60
2023-04-21T08:25:46.608Z,33.95
2023-04-21T08:28:32.329Z,33.13
2023-04-21T08:31:19.752Z,29.58
2023-04-21T08:34:05.661Z,28.75
2023-04-21T08:36:51.324Z,28.38
2023-04-21T08:39:36.522Z,28.48
2023-04-21T08:42:21.909Z,27.80
2023-04-21T08:45:07.968Z,28.77
2023-04-21T08:48:00.457Z,28.48
2023-04-21T08:50:48.512Z,28.63
2023-04-21T08:53:37.070Z,29.67
2023-04-21T08:56:24.247Z,30.27
2023-04-21T08:59:10.067Z,31.02
2023-04-21T09:02:12.159Z,30.20
2023-04-21T09:05:00.005Z,30.38
2023-04-21T09:07:45.953Z,28.65
2023-04-21T09:10:31.476Z,28.58
2023-04-21T09:13:19.371Z,28.58
2023-04-21T09:16:14.760Z,28.42
2023-04-21T09:21:50.619Z,28.17
2023-04-21T09:24:35.670Z,26.38
2023-04-21T09:27:21.650Z,28.58
2023-04-21T09:30:08.164Z,26.55
2023-04-21T09:33:00.237Z,28.75
2023-04-21T09:35:46.635Z,26.73
2023-04-21T09:38:34.653Z,27.05
2023-04-21T09:41:20.534Z,25.00
2023-04-21T09:44:06.305Z,28.38
2023-04-21T09:46:58.332Z,27.70
2023-04-21T09:49:45.019Z,24.40
2023-04-21T09:52:34.048Z,23.10
2023-04-21T09:55:27.227Z,21.02
2023-04-21T09:58:15.723Z,22.83
2023-04-21T10:01:01.392Z,22.25
2023-04-21T10:03:49.333Z,20.63
2023-04-21T10:06:38.720Z,19.40
2023-04-21T10:09:27.588Z,18.75
2023-04-21T10:12:14.445Z,18.80
2023-04-21T10:15:05.367Z,19.25
2023-04-21T10:17:53.545Z,18.08
2023-04-21T10:20:50.953Z,18.02
2023-04-21T10:23:37.915Z,17.35
2023-04-21T10:26:29.703Z,18.30
2023-04-21T10:29:16.228Z,17.95
2023-04-21T10:32:03.332Z,18.00
2023-04-21T10:34:49.500Z,17.98
2023-04-21T10:37:38.716Z,19.05
2023-04-21T10:40:42.990Z,19.77
2023-04-21T10:43:59.360Z,20.23
2023-04-21T10:46:52.532Z,22.25
2023-04-21T10:49:39.719Z,22.42
2023-04-21T10:52:34.132Z,22.77
2023-04-21T10:55:25.362Z,21.70
2023-04-21T10:58:10.661Z,20.50
2023-04-21T11:00:56.914Z,19.85
2023-04-21T11:03:45.851Z,17.63
2023-04-21T11:06:32.817Z,16.00
2023-04-21T11:09:18.026Z,16.00
2023-04-21T11:12:07.418Z,16.58
2023-04-21T11:14:53.931Z,14.95
2023-04-21T11:17:43.792Z,16.05
2023-04-21T11:20:29.288Z,14.63
2023-04-21T11:23:18.877Z,15.27
2023-04-21T11:26:04.128Z,15.27
2023-04-21T11:28:50.227Z,15.40
2023-04-21T11:31:39.503Z,13.23
2023-04-21T11:34:27.892Z,13.73
2023-04-21T11:37:22.104Z,12.55
2023-04-21T11:40:08.445Z,12.10
2023-04-21T11:42:54.895Z,13.40
2023-04-21T11:45:51.056Z,13.38
2023-04-21T11:48:36.796Z,12.13
2023-04-21T11:51:22.497Z,13.30
2023-04-21T11:54:12.702Z,12.40
2023-04-21T11:56:57.928Z,11.35
2023-04-21T11:59:46.793Z,11.00
2023-04-21T12:02:36.637Z,11.88
2023-04-21T12:05:22.777Z,10.95
2023-04-21T12:08:14.916Z,10.82
2023-04-21T12:11:02.089Z,10.80
2023-04-21T12:13:47.579Z,11.73
2023-04-21T12:16:33.270Z,11.93
2023-04-21T12:19:39.701Z,10.55
2023-04-21T12:22:24.940Z,9.93
2023-04-21T12:25:10.431Z,9.90
2023-04-21T12:28:02.706Z,10.07
2023-04-21T12:30:48.127Z,10.73
2023-04-21T12:33:33.593Z,9.07
2023-04-21T12:36:19.083Z,7.95
2023-04-21T12:39:04.286Z,8.10
2023-04-21T12:41:49.754Z,8.85
2023-04-21T12:44:35.335Z,9.07
2023-04-21T12:47:20.855Z,8.40
2023-04-21T12:50:06.947Z,8.10
2023-04-21T12:52:57.750Z,8.70
2023-04-21T12:55:49.938Z,8.20
2023-04-21T12:58:48.265Z,10.38
2023-04-21T13:01:33.574Z,11.45
2023-04-21T13:04:19.329Z,11.25
2023-04-21T13:07:04.909Z,11.20
2023-04-21T13:09:49.859Z,10.48
2023-04-21T13:12:35.615Z,10.35
2023-04-21T13:15:20.871Z,10.13
2023-04-21T13:18:06.575Z,9.35
2023-04-21T13:20:52.058Z,10.15
2023-04-21T13:23:37.456Z,8.85
2023-04-21T13:26:22.861Z,8.77
2023-04-21T13:29:08.025Z,9.70
2023-04-21T13:31:53.632Z,9.48
2023-04-21T13:34:39.176Z,10.65
2023-04-21T13:37:24.461Z,11.43
2023-04-21T13:40:10.835Z,11.02
2023-04-21T13:42:58.664Z,11.60
2023-04-21T13:45:48.243Z,12.40
2023-04-21T13:48:33.727Z,13.48
2023-04-21T13:51:20.553Z,13.38
2023-04-21T13:54:05.986Z,12.98
2023-04-21T13:56:51.896Z,13.32
2023-04-21T13:59:36.920Z,12.15
2023-04-21T14:02:28.236Z,12.65
2023-04-21T14:05:13.959Z,12.77
2023-04-21T14:08:00.418Z,12.32
2023-04-21T14:10:45.599Z,13.50
2023-04-21T14:16:20.010Z,11.75
2023-04-21T14:19:05.532Z,13.27
2023-04-21T14:21:51.108Z,13.10
2023-04-21T14:24:36.497Z,12.98
2023-04-21T14:27:21.980Z,12.95
2023-04-21T14:30:08.205Z,12.45
2023-04-21T14:32:53.208Z,13.35
2023-04-21T14:35:38.588Z,13.52
2023-04-21T14:38:24.454Z,13.95
2023-04-21T14:41:13.031Z,14.07
2023-04-21T14:44:03.190Z,13.52
2023-04-21T14:47:00.940Z,14.80
2023-04-21T14:49:54.654Z,15.65
2023-04-21T14:52:40.834Z,14.48
2023-04-21T14:55:26.134Z,13.57
2023-04-21T14:58:17.448Z,14.60
2023-04-21T15:01:02.444Z,13.70
2023-04-21T15:03:47.994Z,12.90
2023-04-21T15:06:33.156Z,15.63
2023-04-21T15:09:19.448Z,15.50
2023-04-21T15:12:05.762Z,14.20
2023-04-21T15:14:52.442Z,15.35
2023-04-21T15:17:37.847Z,14.45
2023-04-21T15:20:36.528Z,16.10
2023-04-21T15:23:29.162Z,16.02
2023-04-21T15:26:14.405Z,17.38
2023-04-21T15:29:00.213Z,16.00
2023-04-21T15:31:45.641Z,16.83
2023-04-21T15:34:33.525Z,16.65
2023-04-21T15:37:20.004Z,16.38
2023-04-21T15:40:06.261Z,17.13
2023-04-21T15:42:51.468Z,15.98
2023-04-21T15:45:37.058Z,16.88
2023-04-21T15:48:22.537Z,15.98
2023-04-21T15:51:12.673Z,16.02
2023-04-21T15:53:58.318Z,16.50
2023-04-21T15:56:43.499Z,15.50
2023-04-21T15:59:28.950Z,16.23
2023-04-21T16:02:14.756Z,16.55
2023-04-21T16:05:00.996Z,17.50
2023-04-21T16:07:46.764Z,16.33
2023-04-21T16:10:32.191Z,15.73
2023-04-21T16:13:18.935Z,16.17
2023-04-21T16:16:04.455Z,16.30
2023-04-21T16:18:49.753Z,15.73
2023-04-21T16:21:36.274Z,15.68
2023-04-21T16:24:21.832Z,17.40
2023-04-21T16:27:07.345Z,15.88
2023-04-21T16:29:52.905Z,15.88
2023-04-21T16:32:38.350Z,17.45
2023-04-21T16:35:26.812Z,15.95
2023-04-21T16:38:12.409Z,15.77
2023-04-21T16:40:57.498Z,16.77
2023-04-21T16:43:43.237Z,15.70
2023-04-21T16:46:28.544Z,17.42
2023-04-21T16:49:14.029Z,17.50
2023-04-21T16:51:59.677Z,17.23
2023-04-21T16:54:44.818Z,16.13
2023-04-21T16:57:31.170Z,16.60
2023-04-21T17:00:19.062Z,16.70
2023-04-21T17:03:04.788Z,17.08
2023-04-21T17:05:50.744Z,17.33
2023-04-21T17:08:36.668Z,16.33
2023-04-21T17:11:21.972Z,16.88
2023-04-21T17:14:07.294Z,17.35
2023-04-21T17:16:54.087Z,17.35
2023-04-21T17:19:40.698Z,19.02
2023-04-21T17:22:26.230Z,19.13
2023-04-21T17:25:12.035Z,17.77
2023-04-21T17:27:58.396Z,19.25
2023-04-21T17:30:43.932Z,18.65
2023-04-21T17:33:29.605Z,19.63
2023-04-21T17:36:16.936Z,19.23
2023-04-21T17:39:02.768Z,19.77
2023-04-21T17:41:49.365Z,19.52
2023-04-21T17:44:35.509Z,19.52
2023-04-21T17:47:22.586Z,19.67
2023-04-21T17:50:09.980Z,20.08
2023-04-21T17:52:55.942Z,20.20
2023-04-21T17:55:41.568Z,20.20
2023-04-21T17:58:27.709Z,20.73
2023-04-21T18:01:17.485Z,19.95
2023-04-21T18:04:04.605Z,20.45
2023-04-21T18:06:51.338Z,20.02
2023-04-21T18:09:36.952Z,20.30
2023-04-21T18:12:22.473Z,20.60
2023-04-21T18:15:08.808Z,20.50
2023-04-21T18:17:54.609Z,21.67
2023-04-21T18:20:40.673Z,19.70
2023-04-21T18:23:29.149Z,21.33
2023-04-21T18:26:14.528Z,6.72
2023-04-21T18:29:00.060Z,6.30
2023-04-21T18:31:45.660Z,12.00
2023-04-21T18:34:31.350Z,18.42
2023-04-21T18:37:17.714Z,11.77
2023-04-21T18:40:05.947Z,12.63
2023-04-21T18:42:51.802Z,11.73
2023-04-21T18:45:38.579Z,11.93
2023-04-21T18:48:24.072Z,10.07
2023-04-21T18:51:09.726Z,14.68
2023-04-21T18:53:55.779Z,17.27
2023-04-21T18:56:41.735Z,24.00
2023-04-21T18:59:27.172Z,30.50
2023-04-21T19:02:13.774Z,31.80
2023-04-21T19:04:59.571Z,30.38
2023-04-21T19:07:45.248Z,31.83
2023-04-21T19:10:34.197Z,32.55
2023-04-21T19:13:22.531Z,31.30
2023-04-21T19:16:12.500Z,34.55
2023-04-21T19:18:59.678Z,35.83
2023-04-21T19:21:45.394Z,37.83
2023-04-21T19:24:37.176Z,43.90
2023-04-21T19:27:22.795Z,38.05
2023-04-21T19:30:09.147Z,40.25
2023-04-21T19:32:55.238Z,39.05
2023-04-21T19:35:41.335Z,40.17
2023-04-21T19:38:28.346Z,42.17
2023-04-21T19:41:13.635Z,44.08
2023-04-21T19:43:59.537Z,42.08
2023-04-21T19:46:49.559Z,47.22
2023-04-21T19:49:35.261Z,44.97
2023-04-21T19:52:20.568Z,47.83
2023-04-21T19:55:06.887Z,49.88
2023-04-21T19:57:52.671Z,45.28
2023-04-21T20:00:38.244Z,44.28
2023-04-21T20:03:25.185Z,47.65
2023-04-21T20:06:11.528Z,50.17
2023-04-21T20:08:58.154Z,50.17
2023-04-21T20:11:43.882Z,50.53
2023-04-21T20:14:29.616Z,52.30
2023-04-21T20:17:15.116Z,51.72
2023-04-21T20:20:01.223Z,42.03
2023-04-21T20:22:48.061Z,52.20
2023-04-21T20:25:33.652Z,52.05
2023-04-21T20:28:22.728Z,39.90
2023-04-21T20:31:08.716Z,49.78
2023-04-21T20:33:56.672Z,53.50
2023-04-21T20:36:42.595Z,51.17
2023-04-21T20:39:28.101Z,56.60
2023-04-21T20:42:14.720Z,56.80
2023-04-21T20:45:02.229Z,51.67
2023-04-21T20:47:47.647Z,56.20
2023-04-21T20:50:33.244Z,49.35
2023-04-21T20:53:20.000Z,47.88
2023-04-21T20:56:05.714Z,47.17
2023-04-21T20:58:50.925Z,51.65
2023-04-21T21:01:39.908Z,41.00
2023-04-21T21:04:25.735Z,34.80
2023-04-21T21:07:13.990Z,41.17
2023-04-21T21:09:59.698Z,42.95
2023-04-21T21:12:44.799Z,41.13
2023-04-21T21:15:34.242Z,33.20
2023-04-21T21:18:19.510Z,31.20
2023-04-21T21:21:06.802Z,31.63
2023-04-21T21:23:52.218Z,32.42
2023-04-21T21:26:38.538Z,33.63
2023-04-21T21:29:27.416Z,31.55
2023-04-21T21:32:13.141Z,32.28
2023-04-21T21:34:59.884Z,31.45
2023-04-21T21:37:45.543Z,35.40
2023-04-21T21:40:30.684Z,35.70
2023-04-21T21:43:16.524Z,37.95
2023-04-21T21:46:02.449Z,37.85
2023-04-21T21:48:49.376Z,42.50
2023-04-21T21:51:35.004Z,42.22
2023-04-21T21:54:21.025Z,41.47
2023-04-21T21:57:06.583Z,40.22
2023-04-21T21:59:52.524Z,39.28
2023-04-21T22:02:38.128Z,36.20
2023-04-21T22:05:23.963Z,38.92
2023-04-21T22:08:09.297Z,38.05
2023-04-21T22:10:54.696Z,38.97
2023-04-21T22:13:40.667Z,40.38
2023-04-21T22:16:34.549Z,42.47
2023-04-21T22:19:20.426Z,44.63
2023-04-21T22:22:05.891Z,41.42
2023-04-21T22:24:51.428Z,44.17
2023-04-21T22:27:36.773Z,43.20
2023-04-21T22:30:24.077Z,43.42
2023-04-21T22:33:09.714Z,44.55
2023-04-21T22:35:55.688Z,47.13
2023-04-21T22:38:43.622Z,48.88
2023-04-21T22:41:28.921Z,49.50
2023-04-21T22:44:14.605Z,48.92
2023-04-21T22:47:00.613Z,51.28
2023-04-21T22:49:46.260Z,52.13
2023-04-21T22:52:31.696Z,51.90
2023-04-21T22:55:18.200Z,54.17
2023-04-21T22:58:03.849Z,55.45
2023-04-21T23:00:49.555Z,60.28
2023-04-21T23:03:35.214Z,61.53
2023-04-21T23:06:21.016Z,64.05
2023-04-21T23:09:06.569Z,69.43
2023-04-21T23:11:52.259Z,67.38
2023-04-21T23:14:37.859Z,73.85
2023-04-21T23:17:25.779Z,70.03
2023-04-21T23:20:11.839Z,72.40
2023-04-21T23:22:57.600Z,74.47
2023-04-21T23:25:43.122Z,71.53
2023-04-21T23:28:28.464Z,74.53
2023-04-21T23:31:14.365Z,75.53
2023-04-21T23:34:02.707Z,78.53
2023-04-21T23:36:48.212Z,82.43
2023-04-21T23:39:33.664Z,83.07
2023-04-21T23:42:19.130Z,82.38
2023-04-21T23:45:06.366Z,86.78
2023-04-21T23:47:51.822Z,84.50
2023-04-21T23:50:37.425Z,89.10
2023-04-21T23:53:22.806Z,87.30
2023-04-21T23:56:08.255Z,91.75
2023-04-21T23:58:55.418Z,89.05
